This is the latest recevied weather packets stored in our database for station/object N9DRW. If no packets are shown the sender has not sent any weather packets the latest 10 day(s).
| Time | Temp. | Humidity | Pressure | Rain* | Wind** | Luminosity | Snow |
|---|---|---|---|---|---|---|---|
| 1777986726 | 8.33° C | 49% | 0 hPa | 0 mm | - | - | - |
| 1777986126 | 8.33° C | 48% | 0 hPa | 0 mm | - | - | - |
| 1777985526 | 8.33° C | 49% | 0 hPa | 0 mm | - | - | - |
| 1777984925 | 8.33° C | 51% | 0 hPa | 0 mm | - | - | - |
| 1777984329 | 7.22° C | 53% | 0 hPa | 0 mm | - | - | - |
| 1777983726 | 7.22° C | 56% | 0 hPa | 0 mm | - | - | - |
| 1777983126 | 6.67° C | 55% | 0 hPa | 0 mm | - | - | - |
| 1777982525 | 6.67° C | 58% | 0 hPa | 0 mm | - | - | - |
| 1777981926 | 6.11° C | 60% | 0 hPa | 0 mm | - | - | - |
| 1777981326 | 6.11° C | 59% | 0 hPa | 0 mm | - | - | - |
| 1777980726 | 5.56° C | 60% | 0 hPa | 0 mm | - | - | - |
| 1777980125 | 5° C | 61% | 0 hPa | 0 mm | - | - | - |
| 1777979526 | 4.44° C | 64% | 0 hPa | 0 mm | - | - | - |
| 1777978925 | 4.44° C | 63% | 0 hPa | 0 mm | - | - | - |
| 1777978326 | 5° C | 62% | 0 hPa | 0 mm | - | - | - |
| 1777977726 | 5.56° C | 61% | 0 hPa | 0 mm | - | - | - |
| 1777977126 | 5.56° C | 60% | 0 hPa | 0 mm | - | - | - |
| 1777976526 | 6.11° C | 58% | 0 hPa | 0 mm | - | - | - |
| 1777975926 | 6.11° C | 56% | 0 hPa | 0 mm | - | - | - |
| 1777975327 | 6.67° C | 57% | 0 hPa | 0 mm | - | - | - |
| 1777974726 | 6.67° C | 56% | 0 hPa | 0 mm | - | - | - |
| 1777974126 | 7.22° C | 54% | 0 hPa | 0 mm | - | - | - |
| 1777973526 | 7.78° C | 53% | 0 hPa | 0 mm | - | - | - |
| 1777972926 | 7.78° C | 52% | 0 hPa | 0 mm | - | - | - |
| 1777972326 | 7.78° C | 52% | 0 hPa | 0 mm | - | - | - |
* Rain latest hour (hover to see other rain measurements)
** Current wind speed in m/s (hover to see current wind gust speed)